sensor_id;sensor_type;location;lat;lon;timestamp;pressure;altitude;pressure_sealevel;temperature;humidity
18749;BME280;9503;53.560;10.246;2022-08-14T00:00:09;100929.28;;;22.43;72.09
18749;BME280;9503;53.560;10.246;2022-08-14T00:02:36;100924.03;;;22.37;72.38
18749;BME280;9503;53.560;10.246;2022-08-14T00:05:04;100924.91;;;22.39;72.23
18749;BME280;9503;53.560;10.246;2022-08-14T00:07:31;100922.28;;;22.37;72.39
18749;BME280;9503;53.560;10.246;2022-08-14T00:09:59;100922.31;;;22.40;72.20
18749;BME280;9503;53.560;10.246;2022-08-14T00:12:26;100917.09;;;22.40;72.43
18749;BME280;9503;53.560;10.246;2022-08-14T00:14:54;100908.31;;;22.32;72.33
18749;BME280;9503;53.560;10.246;2022-08-14T00:17:20;100910.06;;;22.30;72.75
18749;BME280;9503;53.560;10.246;2022-08-14T00:19:47;100905.72;;;22.29;72.86
18749;BME280;9503;53.560;10.246;2022-08-14T00:22:14;100910.94;;;22.30;72.69
18749;BME280;9503;53.560;10.246;2022-08-14T00:24:43;100909.19;;;22.31;72.76
18749;BME280;9503;53.560;10.246;2022-08-14T00:27:10;100904.88;;;22.33;72.58
18749;BME280;9503;53.560;10.246;2022-08-14T00:29:36;100907.47;;;22.38;72.91
18749;BME280;9503;53.560;10.246;2022-08-14T00:32:05;100901.38;;;22.32;72.85
18749;BME280;9503;53.560;10.246;2022-08-14T00:34:32;100901.38;;;22.36;72.95
18749;BME280;9503;53.560;10.246;2022-08-14T00:36:59;100893.56;;;22.34;73.28
18749;BME280;9503;53.560;10.246;2022-08-14T00:39:26;100888.31;;;22.31;73.21
18749;BME280;9503;53.560;10.246;2022-08-14T00:41:52;100889.22;;;22.42;73.20
18749;BME280;9503;53.560;10.246;2022-08-14T00:44:19;100887.44;;;22.38;73.23
18749;BME280;9503;53.560;10.246;2022-08-14T00:46:45;100886.56;;;22.28;73.51
18749;BME280;9503;53.560;10.246;2022-08-14T00:49:14;100881.38;;;22.42;73.41
18749;BME280;9503;53.560;10.246;2022-08-14T00:51:42;100877.03;;;22.43;73.22
18749;BME280;9503;53.560;10.246;2022-08-14T00:54:10;100879.63;;;22.46;73.20
18749;BME280;9503;53.560;10.246;2022-08-14T00:56:38;100877.91;;;22.52;73.09
18749;BME280;9503;53.560;10.246;2022-08-14T00:59:04;100881.38;;;22.54;73.21
18749;BME280;9503;53.560;10.246;2022-08-14T01:01:31;100881.38;;;22.51;73.39
18749;BME280;9503;53.560;10.246;2022-08-14T01:04:01;100879.66;;;22.56;73.00
18749;BME280;9503;53.560;10.246;2022-08-14T01:06:29;100874.41;;;22.61;72.97
18749;BME280;9503;53.560;10.246;2022-08-14T01:08:57;100879.66;;;22.67;72.54
18749;BME280;9503;53.560;10.246;2022-08-14T01:11:26;100883.16;;;22.68;72.81
18749;BME280;9503;53.560;10.246;2022-08-14T01:13:53;100883.16;;;22.74;72.93
18749;BME280;9503;53.560;10.246;2022-08-14T01:16:26;100879.66;;;22.76;72.99
18749;BME280;9503;53.560;10.246;2022-08-14T01:18:55;100877.94;;;22.84;72.87
18749;BME280;9503;53.560;10.246;2022-08-14T01:21:41;100869.22;;;22.81;72.74
18749;BME280;9503;53.560;10.246;2022-08-14T01:24:10;100877.06;;;22.75;72.84
18749;BME280;9503;53.560;10.246;2022-08-14T01:26:40;100869.22;;;22.72;72.97
18749;BME280;9503;53.560;10.246;2022-08-14T01:29:07;100871.88;;;22.87;72.58
18749;BME280;9503;53.560;10.246;2022-08-14T01:31:36;100864.00;;;22.79;73.10
18749;BME280;9503;53.560;10.246;2022-08-14T01:34:04;100870.09;;;22.80;72.93
18749;BME280;9503;53.560;10.246;2022-08-14T01:36:32;100867.47;;;22.75;73.19
18749;BME280;9503;53.560;10.246;2022-08-14T01:39:04;100863.13;;;22.85;72.86
18749;BME280;9503;53.560;10.246;2022-08-14T01:41:32;100868.34;;;22.76;73.14
18749;BME280;9503;53.560;10.246;2022-08-14T01:44:03;100861.38;;;22.78;73.32
18749;BME280;9503;53.560;10.246;2022-08-14T01:46:32;100863.13;;;22.82;73.33
18749;BME280;9503;53.560;10.246;2022-08-14T01:49:00;100867.47;;;22.80;73.43
18749;BME280;9503;53.560;10.246;2022-08-14T01:51:28;100859.63;;;22.80;73.64
18749;BME280;9503;53.560;10.246;2022-08-14T01:53:58;100862.25;;;22.72;73.84
18749;BME280;9503;53.560;10.246;2022-08-14T01:56:27;100853.50;;;22.69;73.79
18749;BME280;9503;53.560;10.246;2022-08-14T01:59:05;100848.28;;;22.82;73.70
18749;BME280;9503;53.560;10.246;2022-08-14T02:01:32;100847.44;;;22.89;73.33
18749;BME280;9503;53.560;10.246;2022-08-14T02:04:00;100839.59;;;22.79;73.75
18749;BME280;9503;53.560;10.246;2022-08-14T02:06:27;100833.47;;;22.69;74.20
18749;BME280;9503;53.560;10.246;2022-08-14T02:08:54;100830.88;;;22.71;74.23
18749;BME280;9503;53.560;10.246;2022-08-14T02:11:21;100830.00;;;22.73;74.33
18749;BME280;9503;53.560;10.246;2022-08-14T02:13:52;100837.81;;;22.76;74.33
18749;BME280;9503;53.560;10.246;2022-08-14T02:16:22;100836.13;;;22.77;74.36
18749;BME280;9503;53.560;10.246;2022-08-14T02:18:52;100836.97;;;22.67;74.68
18749;BME280;9503;53.560;10.246;2022-08-14T02:21:18;100835.22;;;22.52;75.27
18749;BME280;9503;53.560;10.246;2022-08-14T02:23:47;100826.50;;;22.47;75.63
18749;BME280;9503;53.560;10.246;2022-08-14T02:26:16;100838.69;;;22.43;75.69
18749;BME280;9503;53.560;10.246;2022-08-14T02:28:44;100835.19;;;22.35;76.09
18749;BME280;9503;53.560;10.246;2022-08-14T02:31:12;100823.88;;;22.34;75.95
18749;BME280;9503;53.560;10.246;2022-08-14T02:33:40;100824.75;;;22.33;76.25
18749;BME280;9503;53.560;10.246;2022-08-14T02:36:08;100823.84;;;22.31;76.17
18749;BME280;9503;53.560;10.246;2022-08-14T02:38:35;100822.13;;;22.18;76.61
18749;BME280;9503;53.560;10.246;2022-08-14T02:41:03;100820.31;;;22.06;77.31
18749;BME280;9503;53.560;10.246;2022-08-14T02:43:29;100823.84;;;22.13;77.14
18749;BME280;9503;53.560;10.246;2022-08-14T02:45:56;100818.56;;;22.07;77.28
18749;BME280;9503;53.560;10.246;2022-08-14T02:48:24;100817.66;;;21.97;77.69
18749;BME280;9503;53.560;10.246;2022-08-14T02:50:55;100814.16;;;21.92;78.03
18749;BME280;9503;53.560;10.246;2022-08-14T02:53:22;100809.78;;;21.85;78.39
18749;BME280;9503;53.560;10.246;2022-08-14T02:55:48;100804.56;;;21.87;78.21
18749;BME280;9503;53.560;10.246;2022-08-14T02:58:16;100801.06;;;21.80;78.71
18749;BME280;9503;53.560;10.246;2022-08-14T03:00:43;100803.69;;;21.78;78.89
18749;BME280;9503;53.560;10.246;2022-08-14T03:03:09;100797.56;;;21.69;79.11
18749;BME280;9503;53.560;10.246;2022-08-14T03:05:38;100800.16;;;21.69;79.30
18749;BME280;9503;53.560;10.246;2022-08-14T03:08:07;100800.09;;;21.57;79.94
18749;BME280;9503;53.560;10.246;2022-08-14T03:10:34;100803.56;;;21.49;80.21
18749;BME280;9503;53.560;10.246;2022-08-14T03:13:01;100798.34;;;21.48;80.08
18749;BME280;9503;53.560;10.246;2022-08-14T03:15:29;100804.38;;;21.42;80.51
18749;BME280;9503;53.560;10.246;2022-08-14T03:17:56;100800.91;;;21.37;80.30
18749;BME280;9503;53.560;10.246;2022-08-14T03:20:22;100798.28;;;21.37;80.93
18749;BME280;9503;53.560;10.246;2022-08-14T03:22:50;100800.88;;;21.36;80.91
18749;BME280;9503;53.560;10.246;2022-08-14T03:25:18;100806.09;;;21.34;80.80
18749;BME280;9503;53.560;10.246;2022-08-14T03:27:46;100797.38;;;21.32;81.07
18749;BME280;9503;53.560;10.246;2022-08-14T03:30:13;100799.88;;;21.21;81.83
18749;BME280;9503;53.560;10.246;2022-08-14T03:32:39;100799.94;;;21.26;81.60
18749;BME280;9503;53.560;10.246;2022-08-14T03:35:07;100798.22;;;21.28;81.29
18749;BME280;9503;53.560;10.246;2022-08-14T03:37:35;100791.19;;;21.16;81.98
18749;BME280;9503;53.560;10.246;2022-08-14T03:40:04;100794.63;;;21.14;81.66
18749;BME280;9503;53.560;10.246;2022-08-14T03:42:31;100805.06;;;21.11;81.84
18749;BME280;9503;53.560;10.246;2022-08-14T03:44:59;100798.16;;;21.16;81.48
18749;BME280;9503;53.560;10.246;2022-08-14T03:47:26;100792.06;;;21.17;81.61
18749;BME280;9503;53.560;10.246;2022-08-14T03:49:53;100791.19;;;21.21;81.53
18749;BME280;9503;53.560;10.246;2022-08-14T03:52:20;100788.53;;;21.10;81.76
18749;BME280;9503;53.560;10.246;2022-08-14T03:54:48;100786.84;;;21.18;81.64
18749;BME280;9503;53.560;10.246;2022-08-14T03:57:16;100785.97;;;21.21;81.60
18749;BME280;9503;53.560;10.246;2022-08-14T03:59:42;100785.09;;;21.19;81.82
18749;BME280;9503;53.560;10.246;2022-08-14T04:02:09;100788.63;;;21.24;81.85
18749;BME280;9503;53.560;10.246;2022-08-14T04:04:35;100782.59;;;21.33;81.32
18749;BME280;9503;53.560;10.246;2022-08-14T04:07:03;100779.84;;;21.14;82.06
18749;BME280;9503;53.560;10.246;2022-08-14T04:09:30;100775.53;;;21.16;82.51
18749;BME280;9503;53.560;10.246;2022-08-14T04:11:56;100780.72;;;21.13;82.86
18749;BME280;9503;53.560;10.246;2022-08-14T04:14:25;100779.81;;;21.05;83.02
18749;BME280;9503;53.560;10.246;2022-08-14T04:16:53;100766.84;;;21.16;82.70
18749;BME280;9503;53.560;10.246;2022-08-14T04:19:19;100771.19;;;21.18;82.36
18749;BME280;9503;53.560;10.246;2022-08-14T04:21:48;100766.84;;;21.17;82.48
18749;BME280;9503;53.560;10.246;2022-08-14T04:24:15;100764.25;;;21.19;82.24
18749;BME280;9503;53.560;10.246;2022-08-14T04:26:42;100772.84;;;21.01;83.14
18749;BME280;9503;53.560;10.246;2022-08-14T04:29:09;100776.38;;;21.12;83.18
18749;BME280;9503;53.560;10.246;2022-08-14T04:31:37;100760.59;;;20.91;83.74
18749;BME280;9503;53.560;10.246;2022-08-14T04:34:04;100764.16;;;21.07;83.41
18749;BME280;9503;53.560;10.246;2022-08-14T04:36:31;100755.44;;;20.98;83.77
18749;BME280;9503;53.560;10.246;2022-08-14T04:39:18;100760.50;;;20.73;84.68
18749;BME280;9503;53.560;10.246;2022-08-14T04:41:58;100751.91;;;20.92;84.38
18749;BME280;9503;53.560;10.246;2022-08-14T04:44:42;100760.63;;;20.97;84.30
18749;BME280;9503;53.560;10.246;2022-08-14T04:47:10;100758.84;;;20.87;84.83
18749;BME280;9503;53.560;10.246;2022-08-14T04:49:55;100761.47;;;20.88;84.53
18749;BME280;9503;53.560;10.246;2022-08-14T04:52:23;100760.66;;;20.98;84.60
18749;BME280;9503;53.560;10.246;2022-08-14T04:54:50;100751.91;;;20.90;84.38
18749;BME280;9503;53.560;10.246;2022-08-14T04:57:16;100748.44;;;20.90;84.35
18749;BME280;9503;53.560;10.246;2022-08-14T04:59:43;100750.28;;;21.09;84.27
18749;BME280;9503;53.560;10.246;2022-08-14T05:02:11;100744.25;;;21.21;83.82
18749;BME280;9503;53.560;10.246;2022-08-14T05:04:41;100751.09;;;20.97;84.54
18749;BME280;9503;53.560;10.246;2022-08-14T05:07:07;100750.25;;;21.02;84.41
18749;BME280;9503;53.560;10.246;2022-08-14T05:09:34;100749.47;;;21.18;84.21
18749;BME280;9503;53.560;10.246;2022-08-14T05:12:01;100752.94;;;21.20;84.25
18749;BME280;9503;53.560;10.246;2022-08-14T05:14:28;100747.75;;;21.26;83.74
18749;BME280;9503;53.560;10.246;2022-08-14T05:16:54;100752.19;;;21.33;83.50
18749;BME280;9503;53.560;10.246;2022-08-14T05:19:24;100754.03;;;21.65;82.36
18749;BME280;9503;53.560;10.246;2022-08-14T05:21:51;100749.66;;;21.53;82.78
18749;BME280;9503;53.560;10.246;2022-08-14T05:24:22;100751.41;;;21.56;83.15
18749;BME280;9503;53.560;10.246;2022-08-14T05:26:49;100751.44;;;21.68;82.60
18749;BME280;9503;53.560;10.246;2022-08-14T05:32:20;100741.91;;;21.85;82.04
18749;BME280;9503;53.560;10.246;2022-08-14T05:34:49;100743.75;;;22.24;80.54
18749;BME280;9503;53.560;10.246;2022-08-14T05:37:16;100749.81;;;22.16;80.53
18749;BME280;9503;53.560;10.246;2022-08-14T05:39:43;100744.63;;;22.42;80.21
18749;BME280;9503;53.560;10.246;2022-08-14T05:42:10;100746.34;;;22.69;79.17
18749;BME280;9503;53.560;10.246;2022-08-14T05:44:37;100738.50;;;22.78;79.00
18749;BME280;9503;53.560;10.246;2022-08-14T05:47:04;100747.19;;;22.83;78.38
18749;BME280;9503;53.560;10.246;2022-08-14T05:49:31;100735.69;;;23.42;76.78
18749;BME280;9503;53.560;10.246;2022-08-14T05:51:59;100739.78;;;24.04;74.47
18749;BME280;9503;53.560;10.246;2022-08-14T05:54:29;100739.69;;;24.13;73.86
18749;BME280;9503;53.560;10.246;2022-08-14T05:56:56;100725.06;;;24.88;72.39
18749;BME280;9503;53.560;10.246;2022-08-14T05:59:22;100721.19;;;25.24;70.60
18749;BME280;9503;53.560;10.246;2022-08-14T06:01:49;100723.59;;;25.41;70.19
18749;BME280;9503;53.560;10.246;2022-08-14T06:04:15;100727.69;;;25.61;69.80
18749;BME280;9503;53.560;10.246;2022-08-14T06:06:42;100720.66;;;27.22;65.58
18749;BME280;9503;53.560;10.246;2022-08-14T06:09:10;100728.75;;;27.13;65.10
18749;BME280;9503;53.560;10.246;2022-08-14T06:11:37;100721.31;;;27.34;64.67
18749;BME280;9503;53.560;10.246;2022-08-14T06:14:03;100718.41;;;27.47;64.33
18749;BME280;9503;53.560;10.246;2022-08-14T06:16:30;100721.22;;;26.93;65.44
18749;BME280;9503;53.560;10.246;2022-08-14T06:18:57;100711.03;;;25.66;68.27
18749;BME280;9503;53.560;10.246;2022-08-14T06:21:27;100706.09;;;26.04;67.96
18749;BME280;9503;53.560;10.246;2022-08-14T06:23:54;100705.31;;;25.98;68.61
18749;BME280;9503;53.560;10.246;2022-08-14T06:26:22;100703.25;;;25.58;70.24
18749;BME280;9503;53.560;10.246;2022-08-14T06:28:49;100698.59;;;25.14;71.06
18749;BME280;9503;53.560;10.246;2022-08-14T06:31:15;100695.13;;;25.08;70.85
18749;BME280;9503;53.560;10.246;2022-08-14T06:33:42;100694.66;;;25.47;70.80
18749;BME280;9503;53.560;10.246;2022-08-14T06:36:09;100698.59;;;25.80;69.56
18749;BME280;9503;53.560;10.246;2022-08-14T06:38:35;100687.34;;;25.72;69.45
18749;BME280;9503;53.560;10.246;2022-08-14T06:41:02;100698.09;;;26.12;68.36
18749;BME280;9503;53.560;10.246;2022-08-14T06:43:30;100698.50;;;26.41;67.98
18749;BME280;9503;53.560;10.246;2022-08-14T06:45:56;100692.22;;;25.96;69.06
18749;BME280;9503;53.560;10.246;2022-08-14T06:48:23;100695.75;;;25.94;69.32
18749;BME280;9503;53.560;10.246;2022-08-14T06:50:51;100692.56;;;25.73;69.53
18749;BME280;9503;53.560;10.246;2022-08-14T06:53:22;100690.25;;;25.50;70.92
18749;BME280;9503;53.560;10.246;2022-08-14T06:55:49;100690.22;;;25.52;71.62
18749;BME280;9503;53.560;10.246;2022-08-14T06:58:17;100688.59;;;25.42;70.62
18749;BME280;9503;53.560;10.246;2022-08-14T07:00:46;100702.47;;;26.11;69.69
18749;BME280;9503;53.560;10.246;2022-08-14T07:03:27;100695.19;;;25.73;70.65
18749;BME280;9503;53.560;10.246;2022-08-14T07:06:11;100690.91;;;26.23;68.83
18749;BME280;9503;53.560;10.246;2022-08-14T07:08:38;100686.88;;;26.55;68.18
18749;BME280;9503;53.560;10.246;2022-08-14T07:11:05;100687.88;;;26.48;68.46
18749;BME280;9503;53.560;10.246;2022-08-14T07:13:35;100685.50;;;26.80;67.76
18749;BME280;9503;53.560;10.246;2022-08-14T07:16:11;100679.03;;;26.98;66.67
18749;BME280;9503;53.560;10.246;2022-08-14T07:18:39;100682.81;;;26.83;67.49
18749;BME280;9503;53.560;10.246;2022-08-14T07:21:07;100681.41;;;27.12;66.64
18749;BME280;9503;53.560;10.246;2022-08-14T07:23:34;100669.28;;;27.03;67.41
18749;BME280;9503;53.560;10.246;2022-08-14T07:26:02;100667.69;;;27.78;65.97
18749;BME280;9503;53.560;10.246;2022-08-14T07:28:30;100670.56;;;27.66;65.51
18749;BME280;9503;53.560;10.246;2022-08-14T07:31:00;100672.69;;;27.08;66.83
18749;BME280;9503;53.560;10.246;2022-08-14T07:33:30;100676.44;;;26.96;67.52
18749;BME280;9503;53.560;10.246;2022-08-14T07:35:59;100674.53;;;27.03;67.82
18749;BME280;9503;53.560;10.246;2022-08-14T07:38:26;100675.22;;;26.68;68.90
18749;BME280;9503;53.560;10.246;2022-08-14T07:40:53;100676.28;;;27.03;67.92
18749;BME280;9503;53.560;10.246;2022-08-14T07:43:20;100673.28;;;27.22;67.81
18749;BME280;9503;53.560;10.246;2022-08-14T07:45:47;100678.25;;;27.36;67.28
18749;BME280;9503;53.560;10.246;2022-08-14T07:48:14;100674.72;;;27.37;66.66
18749;BME280;9503;53.560;10.246;2022-08-14T07:50:43;100666.53;;;27.88;65.26
18749;BME280;9503;53.560;10.246;2022-08-14T07:53:09;100668.09;;;27.19;67.04
18749;BME280;9503;53.560;10.246;2022-08-14T07:55:38;100673.06;;;27.33;67.88
18749;BME280;9503;53.560;10.246;2022-08-14T07:58:06;100672.72;;;27.87;65.24
18749;BME280;9503;53.560;10.246;2022-08-14T08:00:36;100664.28;;;27.33;66.38
18749;BME280;9503;53.560;10.246;2022-08-14T08:03:06;100686.34;;;28.06;64.26
18749;BME280;9503;53.560;10.246;2022-08-14T08:05:37;100675.19;;;28.63;63.37
18749;BME280;9503;53.560;10.246;2022-08-14T08:08:10;100677.19;;;28.86;62.63
18749;BME280;9503;53.560;10.246;2022-08-14T08:10:41;100679.16;;;29.40;60.54
18749;BME280;9503;53.560;10.246;2022-08-14T08:13:10;100667.97;;;29.32;60.44
18749;BME280;9503;53.560;10.246;2022-08-14T08:15:39;100670.19;;;29.45;60.90
18749;BME280;9503;53.560;10.246;2022-08-14T08:18:08;100674.50;;;29.48;60.93
18749;BME280;9503;53.560;10.246;2022-08-14T08:20:39;100673.75;;;29.15;61.34
18749;BME280;9503;53.560;10.246;2022-08-14T08:23:08;100678.59;;;28.99;62.39
18749;BME280;9503;53.560;10.246;2022-08-14T08:25:36;100673.22;;;29.04;61.05
18749;BME280;9503;53.560;10.246;2022-08-14T08:28:05;100667.34;;;28.93;62.20
18749;BME280;9503;53.560;10.246;2022-08-14T08:30:33;100665.13;;;28.77;62.27
18749;BME280;9503;53.560;10.246;2022-08-14T08:33:02;100669.81;;;28.99;61.55
18749;BME280;9503;53.560;10.246;2022-08-14T08:35:31;100665.03;;;28.48;63.39
18749;BME280;9503;53.560;10.246;2022-08-14T08:38:04;100659.31;;;28.32;64.01
18749;BME280;9503;53.560;10.246;2022-08-14T08:40:34;100661.59;;;28.10;64.33
18749;BME280;9503;53.560;10.246;2022-08-14T08:43:03;100666.34;;;28.64;63.11
18749;BME280;9503;53.560;10.246;2022-08-14T08:45:32;100660.53;;;28.84;62.63
18749;BME280;9503;53.560;10.246;2022-08-14T08:47:59;100662.94;;;28.93;62.98
18749;BME280;9503;53.560;10.246;2022-08-14T08:50:28;100663.91;;;28.90;63.50
18749;BME280;9503;53.560;10.246;2022-08-14T08:52:57;100650.13;;;29.10;61.66
18749;BME280;9503;53.560;10.246;2022-08-14T08:55:26;100654.78;;;29.02;62.05
18749;BME280;9503;53.560;10.246;2022-08-14T08:57:56;100649.53;;;28.68;63.80
18749;BME280;9503;53.560;10.246;2022-08-14T09:00:24;100648.75;;;28.97;63.45
18749;BME280;9503;53.560;10.246;2022-08-14T09:03:00;100651.59;;;28.89;62.61
18749;BME280;9503;53.560;10.246;2022-08-14T09:05:28;100638.88;;;28.73;62.15
18749;BME280;9503;53.560;10.246;2022-08-14T09:08:12;100651.28;;;29.00;61.86
18749;BME280;9503;53.560;10.246;2022-08-14T09:10:39;100647.03;;;28.96;61.90
18749;BME280;9503;53.560;10.246;2022-08-14T09:13:08;100640.47;;;29.37;61.52
18749;BME280;9503;53.560;10.246;2022-08-14T09:15:38;100660.28;;;30.35;58.30
18749;BME280;9503;53.560;10.246;2022-08-14T09:18:05;100648.22;;;31.24;56.36
18749;BME280;9503;53.560;10.246;2022-08-14T09:20:37;100652.06;;;31.61;55.50
18749;BME280;9503;53.560;10.246;2022-08-14T09:23:05;100656.06;;;30.29;57.69
18749;BME280;9503;53.560;10.246;2022-08-14T09:25:32;100646.59;;;30.22;58.45
18749;BME280;9503;53.560;10.246;2022-08-14T09:27:59;100638.72;;;30.45;58.37
18749;BME280;9503;53.560;10.246;2022-08-14T09:30:43;100645.31;;;30.07;58.52
18749;BME280;9503;53.560;10.246;2022-08-14T09:33:25;100641.34;;;29.94;59.01
18749;BME280;9503;53.560;10.246;2022-08-14T09:36:24;100634.72;;;30.09;58.73
18749;BME280;9503;53.560;10.246;2022-08-14T09:39:06;100633.75;;;29.57;59.80
18749;BME280;9503;53.560;10.246;2022-08-14T09:41:46;100627.28;;;29.37;60.84
18749;BME280;9503;53.560;10.246;2022-08-14T09:44:32;100624.84;;;30.14;59.68
18749;BME280;9503;53.560;10.246;2022-08-14T09:47:06;100625.13;;;30.56;57.95
18749;BME280;9503;53.560;10.246;2022-08-14T09:49:59;100622.13;;;30.40;58.71
18749;BME280;9503;53.560;10.246;2022-08-14T09:52:26;100623.91;;;31.58;56.32
18749;BME280;9503;53.560;10.246;2022-08-14T09:54:56;100617.53;;;31.41;56.16
18749;BME280;9503;53.560;10.246;2022-08-14T09:57:25;100618.25;;;30.75;57.59
18749;BME280;9503;53.560;10.246;2022-08-14T09:59:52;100608.53;;;31.23;56.83
18749;BME280;9503;53.560;10.246;2022-08-14T10:02:23;100611.72;;;30.86;56.69
18749;BME280;9503;53.560;10.246;2022-08-14T10:04:59;100610.84;;;30.60;58.41
18749;BME280;9503;53.560;10.246;2022-08-14T10:07:30;100602.19;;;30.55;58.70
18749;BME280;9503;53.560;10.246;2022-08-14T10:09:57;100599.38;;;30.60;58.00
18749;BME280;9503;53.560;10.246;2022-08-14T10:12:25;100598.72;;;30.03;59.41
18749;BME280;9503;53.560;10.246;2022-08-14T10:14:54;100596.25;;;29.98;59.90
18749;BME280;9503;53.560;10.246;2022-08-14T10:17:23;100594.59;;;29.69;60.53
18749;BME280;9503;53.560;10.246;2022-08-14T10:19:51;100593.31;;;30.33;58.99
18749;BME280;9503;53.560;10.246;2022-08-14T10:22:23;100584.41;;;30.10;59.50
18749;BME280;9503;53.560;10.246;2022-08-14T10:24:54;100584.41;;;30.10;59.28
18749;BME280;9503;53.560;10.246;2022-08-14T10:27:23;100579.53;;;30.48;58.94
18749;BME280;9503;53.560;10.246;2022-08-14T10:29:52;100584.09;;;30.91;58.10
18749;BME280;9503;53.560;10.246;2022-08-14T10:32:27;100579.41;;;30.76;57.87
18749;BME280;9503;53.560;10.246;2022-08-14T10:35:06;100576.59;;;30.80;57.82
18749;BME280;9503;53.560;10.246;2022-08-14T10:37:41;100577.00;;;30.45;57.64
18749;BME280;9503;53.560;10.246;2022-08-14T10:40:09;100573.38;;;30.72;57.67
18749;BME280;9503;53.560;10.246;2022-08-14T10:42:38;100572.31;;;31.45;56.28
18749;BME280;9503;53.560;10.246;2022-08-14T10:45:16;100574.81;;;31.48;55.81
18749;BME280;9503;53.560;10.246;2022-08-14T10:47:46;100569.97;;;31.14;57.24
18749;BME280;9503;53.560;10.246;2022-08-14T10:52:57;100570.13;;;31.33;56.58
18749;BME280;9503;53.560;10.246;2022-08-14T10:55:31;100570.59;;;31.64;55.94
18749;BME280;9503;53.560;10.246;2022-08-14T10:58:05;100569.91;;;30.94;57.74
18749;BME280;9503;53.560;10.246;2022-08-14T11:00:36;100564.91;;;30.61;58.66
18749;BME280;9503;53.560;10.246;2022-08-14T11:03:07;100566.09;;;30.77;58.48
18749;BME280;9503;53.560;10.246;2022-08-14T11:05:39;100557.94;;;31.05;57.74
18749;BME280;9503;53.560;10.246;2022-08-14T11:08:08;100552.59;;;30.60;57.91
18749;BME280;9503;53.560;10.246;2022-08-14T11:10:42;100551.19;;;30.75;58.44
18749;BME280;9503;53.560;10.246;2022-08-14T11:13:14;100555.16;;;31.32;57.09
18749;BME280;9503;53.560;10.246;2022-08-14T11:15:41;100560.66;;;31.04;56.69
18749;BME280;9503;53.560;10.246;2022-08-14T11:18:12;100554.03;;;30.70;57.55
18749;BME280;9503;53.560;10.246;2022-08-14T11:20:42;100554.63;;;31.00;57.39
18749;BME280;9503;53.560;10.246;2022-08-14T11:23:14;100551.75;;;30.83;57.71
18749;BME280;9503;53.560;10.246;2022-08-14T11:25:43;100550.25;;;30.99;57.05
18749;BME280;9503;53.560;10.246;2022-08-14T11:28:12;100549.75;;;30.90;57.71
18749;BME280;9503;53.560;10.246;2022-08-14T11:30:41;100546.56;;;31.03;57.24
18749;BME280;9503;53.560;10.246;2022-08-14T11:33:09;100546.88;;;31.61;56.43
18749;BME280;9503;53.560;10.246;2022-08-14T11:35:37;100541.53;;;32.24;55.26
18749;BME280;9503;53.560;10.246;2022-08-14T11:38:06;100533.97;;;32.35;54.08
18749;BME280;9503;53.560;10.246;2022-08-14T11:40:34;100531.91;;;31.60;55.53
18749;BME280;9503;53.560;10.246;2022-08-14T11:43:02;100523.78;;;31.43;56.22
18749;BME280;9503;53.560;10.246;2022-08-14T11:45:31;100518.88;;;31.97;54.78
18749;BME280;9503;53.560;10.246;2022-08-14T11:48:00;100519.72;;;32.57;53.82
18749;BME280;9503;53.560;10.246;2022-08-14T11:50:28;100505.34;;;32.61;53.57
18749;BME280;9503;53.560;10.246;2022-08-14T11:52:58;100501.59;;;32.85;53.24
18749;BME280;9503;53.560;10.246;2022-08-14T11:55:32;100495.16;;;33.79;51.75
18749;BME280;9503;53.560;10.246;2022-08-14T11:58:01;100500.06;;;33.35;51.78
18749;BME280;9503;53.560;10.246;2022-08-14T12:00:28;100493.69;;;33.91;50.17
18749;BME280;9503;53.560;10.246;2022-08-14T12:02:58;100479.13;;;33.63;50.71
18749;BME280;9503;53.560;10.246;2022-08-14T12:05:30;100486.16;;;33.47;51.16
18749;BME280;9503;53.560;10.246;2022-08-14T12:07:59;100492.59;;;33.95;50.16
18749;BME280;9503;53.560;10.246;2022-08-14T12:10:27;100484.91;;;34.22;49.05
18749;BME280;9503;53.560;10.246;2022-08-14T12:12:55;100487.56;;;33.89;49.64
18749;BME280;9503;53.560;10.246;2022-08-14T12:15:30;100481.16;;;34.26;49.19
18749;BME280;9503;53.560;10.246;2022-08-14T12:17:58;100484.25;;;34.83;47.58
18749;BME280;9503;53.560;10.246;2022-08-14T12:20:30;100471.41;;;35.21;46.90
18749;BME280;9503;53.560;10.246;2022-08-14T12:22:59;100476.69;;;34.26;48.97
18749;BME280;9503;53.560;10.246;2022-08-14T12:25:27;100467.53;;;33.81;49.18
18749;BME280;9503;53.560;10.246;2022-08-14T12:27:55;100451.97;;;33.91;49.39
18749;BME280;9503;53.560;10.246;2022-08-14T12:30:31;100454.31;;;33.97;49.66
18749;BME280;9503;53.560;10.246;2022-08-14T12:32:58;100452.28;;;33.68;49.88
18749;BME280;9503;53.560;10.246;2022-08-14T12:35:35;100451.19;;;33.54;49.94
18749;BME280;9503;53.560;10.246;2022-08-14T12:38:03;100444.16;;;33.53;49.79
18749;BME280;9503;53.560;10.246;2022-08-14T12:40:30;100437.31;;;34.00;49.07
18749;BME280;9503;53.560;10.246;2022-08-14T12:42:59;100434.34;;;33.89;49.83
18749;BME280;9503;53.560;10.246;2022-08-14T12:45:29;100429.25;;;32.97;51.46
18749;BME280;9503;53.560;10.246;2022-08-14T12:48:02;100419.91;;;33.60;50.40
18749;BME280;9503;53.560;10.246;2022-08-14T12:50:38;100412.34;;;34.81;47.18
18749;BME280;9503;53.560;10.246;2022-08-14T12:53:07;100419.59;;;35.69;46.47
18749;BME280;9503;53.560;10.246;2022-08-14T12:55:35;100420.72;;;36.65;44.19
18749;BME280;9503;53.560;10.246;2022-08-14T12:58:03;100408.84;;;35.57;46.31
18749;BME280;9503;53.560;10.246;2022-08-14T13:00:32;100408.78;;;34.51;47.83
18749;BME280;9503;53.560;10.246;2022-08-14T13:02:59;100402.19;;;34.42;48.66
18749;BME280;9503;53.560;10.246;2022-08-14T13:05:28;100392.44;;;35.49;47.39